createdAt,value
2023-02-22T00:00:29.363Z,96770.38
2023-02-22T00:02:37.732Z,96764.59
2023-02-22T00:04:42.447Z,96765.94
2023-02-22T00:06:47.737Z,96764.34
2023-02-22T00:08:52.475Z,96762.25
2023-02-22T00:10:57.233Z,96765.16
2023-02-22T00:13:02.046Z,96766.22
2023-02-22T00:15:06.785Z,96763.84
2023-02-22T00:17:13.620Z,96755.72
2023-02-22T00:19:20.847Z,96754.38
2023-02-22T00:21:25.433Z,96754.66
2023-02-22T00:23:32.027Z,96760.47
2023-02-22T00:25:37.165Z,96748.34
2023-02-22T00:27:41.923Z,96747.31
2023-02-22T00:29:47.605Z,96749.47
2023-02-22T00:31:52.324Z,96744.72
2023-02-22T00:33:56.852Z,96746.84
2023-02-22T00:36:04.067Z,96748.97
2023-02-22T00:38:08.635Z,96742.09
2023-02-22T00:40:13.615Z,96743.69
2023-02-22T00:42:18.611Z,96748.97
2023-02-22T00:44:23.136Z,96740.28
2023-02-22T00:46:27.656Z,96732.38
2023-02-22T00:48:32.278Z,96737.91
2023-02-22T00:50:37.275Z,96735.28
2023-02-22T00:52:44.934Z,96736.06
2023-02-22T00:54:49.686Z,96732.63
2023-02-22T00:56:54.756Z,96730.28
2023-02-22T00:58:59.594Z,96726.31
2023-02-22T01:01:04.210Z,96729.25
2023-02-22T01:03:09.505Z,96732.41
2023-02-22T01:05:16.472Z,96726.34
2023-02-22T01:07:21.496Z,96727.69
2023-02-22T01:09:28.814Z,96727.94
2023-02-22T01:11:33.517Z,96729.28
2023-02-22T01:13:38.985Z,96725.84
2023-02-22T01:15:45.381Z,96725.84
2023-02-22T01:17:51.012Z,96723.50
2023-02-22T01:19:55.862Z,96723.78
2023-02-22T01:22:00.476Z,96719.81
2023-02-22T01:24:04.986Z,96715.88
2023-02-22T01:26:12.295Z,96715.38
2023-02-22T01:28:17.771Z,96716.97
2023-02-22T01:30:24.410Z,96717.50
2023-02-22T01:32:28.998Z,96715.41
2023-02-22T01:34:33.767Z,96714.09
2023-02-22T01:36:38.279Z,96708.81
2023-02-22T01:38:43.056Z,96710.69
2023-02-22T01:40:50.733Z,96712.25
2023-02-22T01:42:59.940Z,96711.19
2023-02-22T01:45:19.441Z,96716.47
2023-02-22T01:47:23.968Z,96707.78
2023-02-22T01:49:30.350Z,96702.22
2023-02-22T01:51:38.267Z,96699.88
2023-02-22T01:53:48.244Z,96699.38
2023-02-22T01:55:53.949Z,96698.56
2023-02-22T01:58:01.221Z,96697.00
2023-02-22T02:00:11.652Z,96693.06
2023-02-22T02:02:21.760Z,96697.81
2023-02-22T02:04:27.458Z,96682.25
2023-02-22T02:06:36.038Z,96683.31
2023-02-22T02:08:49.910Z,96685.16
2023-02-22T02:10:56.036Z,96681.75
2023-02-22T02:13:04.377Z,96681.50
2023-02-22T02:15:19.887Z,96672.28
2023-02-22T02:17:25.541Z,96672.56
2023-02-22T02:19:36.284Z,96676.00
2023-02-22T02:21:51.345Z,96672.06
2023-02-22T02:24:09.203Z,96670.50
2023-02-22T02:26:29.358Z,96677.09
2023-02-22T02:28:50.696Z,96670.22
2023-02-22T02:31:12.122Z,96675.00
2023-02-22T02:33:21.491Z,96673.13
2023-02-22T02:35:32.322Z,96673.69
2023-02-22T02:37:39.810Z,96681.84
2023-02-22T02:39:50.009Z,96677.91
2023-02-22T02:41:54.879Z,96672.91
2023-02-22T02:44:02.447Z,96670.25
2023-02-22T02:46:12.017Z,96669.22
2023-02-22T02:48:20.230Z,96668.94
2023-02-22T02:50:28.038Z,96672.34
2023-02-22T02:52:34.150Z,96659.19
2023-02-22T02:54:40.071Z,96663.69
2023-02-22T02:56:45.657Z,96660.50
2023-02-22T02:58:53.108Z,96656.03
2023-02-22T03:01:05.873Z,96651.31
2023-02-22T03:03:15.648Z,96650.00
2023-02-22T03:05:33.188Z,96651.31
2023-02-22T03:07:46.179Z,96650.00
2023-02-22T03:09:58.597Z,96645.28
2023-02-22T03:12:09.865Z,96645.53
2023-02-22T03:14:19.149Z,96639.78
2023-02-22T03:16:27.550Z,96636.59
2023-02-22T03:18:35.026Z,96642.13
2023-02-22T03:20:47.730Z,96637.94
2023-02-22T03:22:56.215Z,96632.13
2023-02-22T03:25:07.158Z,96625.31
2023-02-22T03:27:15.362Z,96621.09
2023-02-22T03:29:26.740Z,96614.50
2023-02-22T03:31:33.398Z,96614.28
2023-02-22T03:33:41.641Z,96615.59
2023-02-22T03:35:51.310Z,96620.06
2023-02-22T03:38:08.297Z,96616.13
2023-02-22T03:40:16.799Z,96612.69
2023-02-22T03:42:25.602Z,96612.19
2023-02-22T03:44:32.148Z,96615.84
2023-02-22T03:46:38.734Z,96612.44
2023-02-22T03:48:46.959Z,96610.84
2023-02-22T03:50:54.964Z,96613.50
2023-02-22T03:53:01.148Z,96617.16
2023-02-22T03:55:11.337Z,96617.97
2023-02-22T03:57:18.826Z,96606.91
2023-02-22T03:59:25.413Z,96621.16
2023-02-22T04:01:30.042Z,96622.47
2023-02-22T04:03:34.792Z,96620.59
2023-02-22T04:05:39.881Z,96618.25
2023-02-22T04:07:47.788Z,96620.38
2023-02-22T04:09:53.528Z,96622.44
2023-02-22T04:11:58.734Z,96623.53
2023-02-22T04:14:04.129Z,96626.44
2023-02-22T04:16:09.379Z,96630.38
2023-02-22T04:18:14.527Z,96620.88
2023-02-22T04:20:20.146Z,96625.38
2023-02-22T04:22:47.651Z,96624.84
2023-02-22T04:24:53.812Z,96622.47
2023-02-22T04:26:59.840Z,96630.09
2023-02-22T04:29:04.769Z,96627.72
2023-02-22T04:31:15.397Z,96635.13
2023-02-22T04:33:20.862Z,96628.53
2023-02-22T04:35:26.121Z,96633.28
2023-02-22T04:37:30.638Z,96630.09
2023-02-22T04:39:38.002Z,96630.34
2023-02-22T04:41:42.594Z,96629.56
2023-02-22T04:43:47.459Z,96627.97
2023-02-22T04:45:58.711Z,96627.19
2023-02-22T04:48:03.270Z,96627.19
2023-02-22T04:50:08.516Z,96620.09
2023-02-22T04:52:13.204Z,96620.88
2023-02-22T04:54:18.484Z,96629.56
2023-02-22T04:56:27.706Z,96626.41
2023-02-22T04:58:32.347Z,96624.06
2023-02-22T05:00:36.978Z,96628.25
2023-02-22T05:02:41.886Z,96627.72
2023-02-22T05:04:46.534Z,96631.69
2023-02-22T05:06:52.685Z,96630.38
2023-02-22T05:08:58.809Z,96624.03
2023-02-22T05:11:03.340Z,96625.63
2023-02-22T05:13:10.454Z,96623.25
2023-02-22T05:15:19.715Z,96625.38
2023-02-22T05:17:24.352Z,96618.78
2023-02-22T05:19:28.880Z,96618.25
2023-02-22T05:21:33.558Z,96615.88
2023-02-22T05:23:38.144Z,96609.31
2023-02-22T05:25:42.691Z,96610.38
2023-02-22T05:27:47.160Z,96608.78
2023-02-22T05:29:54.374Z,96607.72
2023-02-22T05:31:59.031Z,96612.72
2023-02-22T05:34:03.673Z,96611.13
2023-02-22T05:36:08.676Z,96617.69
2023-02-22T05:38:15.375Z,96613.75
2023-02-22T05:40:21.586Z,96616.41
2023-02-22T05:42:26.236Z,96614.81
2023-02-22T05:44:30.956Z,96606.13
2023-02-22T05:46:38.283Z,96612.19
2023-02-22T05:48:42.816Z,96606.66
2023-02-22T05:50:47.372Z,96608.25
2023-02-22T05:52:51.854Z,96606.66
2023-02-22T05:54:56.459Z,96608.22
2023-02-22T05:57:01.091Z,96612.16
2023-02-22T05:59:05.946Z,96606.13
2023-02-22T06:01:10.481Z,96603.22
2023-02-22T06:03:17.690Z,96605.34
2023-02-22T06:05:22.376Z,96609.28
2023-02-22T06:07:27.350Z,96615.06
2023-02-22T06:09:31.888Z,96610.59
2023-02-22T06:11:37.349Z,96609.56
2023-02-22T06:13:42.240Z,96607.97
2023-02-22T06:15:46.814Z,96607.97
2023-02-22T06:17:51.640Z,96610.31
2023-02-22T06:19:58.896Z,96607.72
2023-02-22T06:22:03.706Z,96613.50
2023-02-22T06:24:08.713Z,96608.25
2023-02-22T06:26:13.237Z,96615.84
2023-02-22T06:28:18.296Z,96609.31
2023-02-22T06:30:24.030Z,96613.50
2023-02-22T06:32:28.798Z,96614.31
2023-02-22T06:34:33.540Z,96612.44
2023-02-22T06:36:40.648Z,96622.19
2023-02-22T06:38:45.172Z,96621.94
2023-02-22T06:40:49.795Z,96618.50
2023-02-22T06:42:54.445Z,96619.56
2023-02-22T06:44:59.066Z,96625.59
2023-02-22T06:47:03.604Z,96622.44
2023-02-22T06:49:08.717Z,96624.28
2023-02-22T06:51:13.253Z,96629.00
2023-02-22T06:53:21.075Z,96619.53
2023-02-22T06:55:27.208Z,96621.91
2023-02-22T06:57:31.838Z,96622.44
2023-02-22T06:59:36.369Z,96631.13
2023-02-22T07:01:43.494Z,96627.44
2023-02-22T07:03:48.057Z,96629.00
2023-02-22T07:05:52.656Z,96628.47
2023-02-22T07:07:58.440Z,96629.03
2023-02-22T07:10:05.646Z,96629.28
2023-02-22T07:12:10.605Z,96629.56
2023-02-22T07:14:15.634Z,96623.78
2023-02-22T07:16:20.163Z,96623.25
2023-02-22T07:18:24.985Z,96627.44
2023-02-22T07:20:30.628Z,96626.41
2023-02-22T07:22:35.252Z,96624.03
2023-02-22T07:24:41.294Z,96621.41
2023-02-22T07:26:48.475Z,96619.03
2023-02-22T07:28:53.123Z,96620.38
2023-02-22T07:30:57.699Z,96617.97
2023-02-22T07:33:04.875Z,96613.78
2023-02-22T07:35:09.984Z,96616.97
2023-02-22T07:37:14.546Z,96615.13
2023-02-22T07:39:19.229Z,96619.31
2023-02-22T07:41:23.868Z,96614.28
2023-02-22T07:43:31.737Z,96618.75
2023-02-22T07:45:37.648Z,96611.09
2023-02-22T07:47:42.299Z,96612.38
2023-02-22T07:49:46.985Z,96607.13
2023-02-22T07:51:51.575Z,96609.22
2023-02-22T07:53:56.105Z,96605.22
2023-02-22T07:56:00.875Z,96606.28
2023-02-22T07:58:07.562Z,96607.06
2023-02-22T08:00:16.028Z,96612.03
2023-02-22T08:02:20.797Z,96611.47
2023-02-22T08:04:25.379Z,96609.31
2023-02-22T08:06:30.226Z,96601.91
2023-02-22T08:08:34.786Z,96606.63
2023-02-22T08:10:39.355Z,96607.88
2023-02-22T08:12:44.009Z,96604.97
2023-02-22T08:14:48.713Z,96606.22
2023-02-22T08:16:55.930Z,96598.81
2023-02-22T08:19:00.489Z,96607.69
2023-02-22T08:21:05.065Z,96604.47
2023-02-22T08:23:09.896Z,96611.03
2023-02-22T08:25:15.642Z,96601.75
2023-02-22T08:27:20.313Z,96599.56
2023-02-22T08:29:33.443Z,96599.28
2023-02-22T08:31:38.119Z,96600.56
2023-02-22T08:33:45.330Z,96602.94
2023-02-22T08:35:51.858Z,96596.31
2023-02-22T08:37:58.722Z,96590.47
2023-02-22T08:40:03.234Z,96597.78
2023-02-22T08:42:09.698Z,96593.50
2023-02-22T08:44:14.487Z,96590.19
2023-02-22T08:46:19.245Z,96589.50
2023-02-22T08:48:24.243Z,96589.63
2023-02-22T08:50:33.812Z,96584.44
2023-02-22T08:52:38.723Z,96589.28
2023-02-22T08:54:43.335Z,96585.94
2023-02-22T08:56:48.168Z,96583.91
2023-02-22T08:58:52.747Z,96584.22
2023-02-22T09:00:58.134Z,96585.09
2023-02-22T09:03:03.646Z,96580.16
2023-02-22T09:05:08.828Z,96585.78
2023-02-22T09:07:16.012Z,96591.91
2023-02-22T09:09:21.632Z,96582.13
2023-02-22T09:11:26.202Z,96577.06
2023-02-22T09:13:30.701Z,96583.38
2023-02-22T09:15:36.047Z,96577.50
2023-02-22T09:17:40.683Z,96570.34
2023-02-22T09:19:45.438Z,96570.84
2023-02-22T09:21:55.079Z,96576.41
2023-02-22T09:24:08.539Z,96572.44
2023-02-22T09:26:16.058Z,96565.03
2023-02-22T09:28:20.707Z,96566.88
2023-02-22T09:30:27.805Z,96569.50
2023-02-22T09:32:32.525Z,96572.28
2023-02-22T09:34:37.411Z,96563.66
2023-02-22T09:36:42.314Z,96566.91
2023-02-22T09:38:47.028Z,96568.69
2023-02-22T09:40:56.288Z,96558.09
2023-02-22T09:43:11.055Z,96558.59
2023-02-22T09:45:19.081Z,96558.63
2023-02-22T09:47:32.539Z,96561.47
2023-02-22T09:49:40.140Z,96558.06
2023-02-22T09:51:49.437Z,96552.81
2023-02-22T09:53:56.911Z,96559.06
2023-02-22T09:56:10.593Z,96557.69
2023-02-22T09:58:21.567Z,96551.44
2023-02-22T10:00:29.669Z,96548.66
2023-02-22T10:02:45.801Z,96553.81
2023-02-22T10:04:58.468Z,96546.78
2023-02-22T10:07:19.472Z,96542.72
2023-02-22T10:09:25.620Z,96540.50
2023-02-22T10:11:48.770Z,96538.66
2023-02-22T10:14:01.810Z,96540.38
2023-02-22T10:16:12.212Z,96539.09
2023-02-22T10:18:32.776Z,96530.34
2023-02-22T10:20:44.628Z,96529.72
2023-02-22T10:22:56.813Z,96527.22
2023-02-22T10:25:04.954Z,96529.25
2023-02-22T10:27:10.411Z,96521.44
2023-02-22T10:29:22.221Z,96525.03
2023-02-22T10:31:29.716Z,96513.28
2023-02-22T10:33:36.545Z,96513.44
2023-02-22T10:35:42.684Z,96513.28
2023-02-22T10:37:48.391Z,96513.91
2023-02-22T10:39:55.244Z,96510.28
2023-02-22T10:42:05.992Z,96509.38
2023-02-22T10:44:11.054Z,96509.50
2023-02-22T10:46:21.764Z,96511.06
2023-02-22T10:48:27.846Z,96504.34
2023-02-22T10:50:34.882Z,96498.84
2023-02-22T10:52:39.409Z,96506.19
2023-02-22T10:54:45.535Z,96505.09
2023-02-22T10:56:50.882Z,96497.91
2023-02-22T10:58:57.753Z,96491.19
2023-02-22T11:01:02.578Z,96497.44
2023-02-22T11:03:20.046Z,96496.81
2023-02-22T11:05:32.053Z,96491.63
2023-02-22T11:07:37.462Z,96491.47
2023-02-22T11:09:53.045Z,96491.75
2023-02-22T11:12:11.375Z,96480.91
2023-02-22T11:14:17.971Z,96483.09
2023-02-22T11:16:28.778Z,96474.78
2023-02-22T11:18:37.192Z,96473.38
2023-02-22T11:20:42.272Z,96466.28
2023-02-22T11:22:46.813Z,96469.56
2023-02-22T11:24:57.902Z,96467.47
2023-02-22T11:27:04.177Z,96468.88
2023-02-22T11:29:16.324Z,96466.34
2023-02-22T11:31:22.552Z,96456.59
2023-02-22T11:33:29.537Z,96456.72
2023-02-22T11:35:39.008Z,96446.97
2023-02-22T11:37:43.895Z,96448.22
2023-02-22T11:39:48.572Z,96437.25
2023-02-22T11:41:53.265Z,96435.50
2023-02-22T11:43:58.006Z,96432.19
2023-02-22T11:46:04.961Z,96434.50
2023-02-22T11:48:10.933Z,96426.19
2023-02-22T11:50:20.403Z,96427.13
2023-02-22T11:52:32.091Z,96426.03
2023-02-22T11:54:48.063Z,96428.81
2023-02-22T11:56:55.814Z,96435.84
2023-02-22T11:59:08.180Z,96424.53
2023-02-22T12:01:17.576Z,96418.53
2023-02-22T12:03:39.695Z,96417.13
2023-02-22T12:05:59.728Z,96429.78
2023-02-22T12:08:19.275Z,96423.34
2023-02-22T12:12:52.996Z,96418.28
2023-02-22T12:15:02.411Z,96418.09
2023-02-22T12:17:13.930Z,96403.31
2023-02-22T12:19:25.364Z,96409.88
2023-02-22T12:21:30.701Z,96410.66
2023-02-22T12:23:44.921Z,96403.75
2023-02-22T12:26:05.456Z,96403.75
2023-02-22T12:28:24.202Z,96402.97
2023-02-22T12:30:31.081Z,96408.31
2023-02-22T12:32:38.436Z,96399.84
2023-02-22T12:34:46.727Z,96395.75
2023-02-22T12:36:53.405Z,96393.88
2023-02-22T12:39:07.724Z,96400.44
2023-02-22T12:41:18.586Z,96396.00
2023-02-22T12:43:26.597Z,96389.22
2023-02-22T12:45:34.038Z,96386.53
2023-02-22T12:47:40.315Z,96389.22
2023-02-22T12:49:48.073Z,96392.22
2023-02-22T12:51:58.779Z,96381.09
2023-02-22T12:54:11.986Z,96379.66
2023-02-22T12:56:22.914Z,96373.69
2023-02-22T12:58:31.546Z,96380.69
2023-02-22T13:00:41.201Z,96376.25
2023-02-22T13:02:47.600Z,96379.81
2023-02-22T13:04:52.341Z,96373.03
2023-02-22T13:07:07.852Z,96372.06
2023-02-22T13:09:27.525Z,96369.16
2023-02-22T13:11:37.039Z,96372.41
2023-02-22T13:13:47.406Z,96358.81
2023-02-22T13:15:56.035Z,96369.63
2023-02-22T13:18:05.151Z,96363.66
2023-02-22T13:20:12.330Z,96357.31
2023-02-22T13:22:19.918Z,96363.88
2023-02-22T13:24:30.573Z,96354.44
2023-02-22T13:26:41.170Z,96355.66
2023-02-22T13:28:48.331Z,96358.44
2023-02-22T13:30:59.368Z,96344.75
2023-02-22T13:33:26.750Z,96355.84
2023-02-22T13:35:38.508Z,96349.41
2023-02-22T13:38:01.817Z,96344.06
2023-02-22T13:40:21.368Z,96341.41
2023-02-22T13:42:36.991Z,96339.84
2023-02-22T13:45:03.472Z,96340.63
2023-02-22T13:47:20.846Z,96344.41
2023-02-22T13:49:38.871Z,96341.72
2023-02-22T13:51:50.766Z,96335.28
2023-02-22T13:53:58.318Z,96340.63
2023-02-22T13:56:03.547Z,96339.53
2023-02-22T13:58:12.586Z,96337.63
2023-02-22T14:00:28.106Z,96329.16
2023-02-22T14:02:36.960Z,96338.63
2023-02-22T14:04:42.358Z,96332.81
2023-02-22T14:06:46.921Z,96333.50
2023-02-22T14:08:51.607Z,96331.94
2023-02-22T14:10:57.894Z,96322.38
2023-02-22T14:13:07.066Z,96326.94
2023-02-22T14:15:29.108Z,96322.72
2023-02-22T14:17:34.606Z,96323.38
2023-02-22T14:19:39.213Z,96324.94
2023-02-22T14:22:02.247Z,96315.38
2023-02-22T14:24:10.798Z,96319.59
2023-02-22T14:26:17.851Z,96315.81
2023-02-22T14:28:46.613Z,96325.06
2023-02-22T14:31:07.608Z,96320.06
2023-02-22T14:33:27.733Z,96317.38
2023-02-22T14:35:48.174Z,96316.56
2023-02-22T14:37:57.765Z,96319.72
2023-02-22T14:40:13.328Z,96307.13
2023-02-22T14:42:20.879Z,96314.81
2023-02-22T14:44:30.913Z,96312.94
2023-02-22T14:46:41.714Z,96314.47
2023-02-22T14:48:47.050Z,96313.38
2023-02-22T14:50:54.834Z,96321.72
2023-02-22T14:53:03.828Z,96311.38
2023-02-22T14:55:14.475Z,96308.22
2023-02-22T14:57:24.563Z,96311.56
2023-02-22T14:59:30.859Z,96314.16
2023-02-22T15:01:52.693Z,96314.81
2023-02-22T15:04:18.812Z,96307.91
2023-02-22T15:06:25.876Z,96312.78
2023-02-22T15:08:32.226Z,96308.56
2023-02-22T15:10:43.052Z,96307.00
2023-02-22T15:12:53.847Z,96306.88
2023-02-22T15:15:14.190Z,96308.31
2023-02-22T15:17:24.769Z,96306.31
2023-02-22T15:19:30.530Z,96295.97
2023-02-22T15:21:35.073Z,96307.31
2023-02-22T15:23:44.436Z,96305.00
2023-02-22T15:25:51.144Z,96309.09
2023-02-22T15:27:55.746Z,96302.19
2023-02-22T15:30:04.813Z,96310.53
2023-02-22T15:32:32.074Z,96302.84
2023-02-22T15:34:36.755Z,96298.97
2023-02-22T15:36:41.480Z,96295.84
2023-02-22T15:38:50.527Z,96293.50
2023-02-22T15:41:04.974Z,96293.84
2023-02-22T15:43:11.193Z,96296.06
2023-02-22T15:45:20.016Z,96292.50
2023-02-22T15:47:28.142Z,96290.47
2023-02-22T15:49:37.086Z,96300.72
2023-02-22T15:51:43.205Z,96297.94
2023-02-22T15:53:48.810Z,96289.03
2023-02-22T15:55:58.881Z,96304.16
2023-02-22T15:58:04.728Z,96303.56
2023-02-22T16:00:11.294Z,96299.22
2023-02-22T16:02:33.358Z,96299.44
2023-02-22T16:04:38.247Z,96294.31
2023-02-22T16:06:44.195Z,96303.75
2023-02-22T16:08:55.252Z,96299.06
2023-02-22T16:11:02.226Z,96300.84
2023-02-22T16:13:07.654Z,96301.16
2023-02-22T16:15:18.131Z,96300.25
2023-02-22T16:17:35.590Z,96299.78
2023-02-22T16:19:42.755Z,96304.97
2023-02-22T16:21:55.092Z,96315.19
2023-02-22T16:24:13.848Z,96300.97
2023-02-22T16:26:27.757Z,96310.38
2023-02-22T16:28:35.870Z,96303.03
2023-02-22T16:30:42.226Z,96313.25
2023-02-22T16:32:49.863Z,96311.25
2023-02-22T16:34:54.597Z,96311.09
2023-02-22T16:36:59.270Z,96309.09
2023-02-22T16:39:03.680Z,96309.41
2023-02-22T16:41:09.776Z,96316.19
2023-02-22T16:43:15.562Z,96317.63
2023-02-22T16:45:20.564Z,96315.91
2023-02-22T16:47:25.045Z,96321.91
2023-02-22T16:49:32.144Z,96313.78
2023-02-22T16:51:42.274Z,96319.75
2023-02-22T16:53:48.845Z,96319.63
2023-02-22T16:55:57.832Z,96323.69
2023-02-22T16:58:04.230Z,96329.69
2023-02-22T17:00:09.999Z,96331.13
2023-02-22T17:02:15.748Z,96330.66
2023-02-22T17:04:20.923Z,96336.31
2023-02-22T17:06:29.311Z,96330.53
2023-02-22T17:08:34.862Z,96330.38
2023-02-22T17:10:39.456Z,96335.91
2023-02-22T17:12:44.708Z,96337.66
2023-02-22T17:14:49.270Z,96338.28
2023-02-22T17:16:53.771Z,96340.34
2023-02-22T17:18:58.345Z,96340.19
2023-02-22T17:21:04.312Z,96341.13
2023-02-22T17:23:12.449Z,96342.41
2023-02-22T17:25:22.438Z,96343.38
2023-02-22T17:27:27.253Z,96341.22
2023-02-22T17:29:31.787Z,96343.25
2023-02-22T17:31:36.827Z,96346.44
2023-02-22T17:33:44.158Z,96348.78
2023-02-22T17:35:49.975Z,96345.19
2023-02-22T17:37:54.516Z,96346.47
2023-02-22T17:40:01.699Z,96349.28
2023-02-22T17:42:06.271Z,96352.13
2023-02-22T17:44:10.887Z,96353.41
2023-02-22T17:46:15.784Z,96356.22
2023-02-22T17:48:22.345Z,96349.50
2023-02-22T17:50:31.838Z,96354.22
2023-02-22T17:52:36.364Z,96359.66
2023-02-22T17:54:40.789Z,96354.53
2023-02-22T17:56:47.977Z,96360.47
2023-02-22T17:58:55.131Z,96357.97
2023-02-22T18:00:59.801Z,96357.78
2023-02-22T18:03:05.069Z,96358.75
2023-02-22T18:05:10.555Z,96358.88
2023-02-22T18:07:19.251Z,96354.81
2023-02-22T18:09:23.938Z,96354.66
2023-02-22T18:11:28.984Z,96359.81
2023-02-22T18:13:36.114Z,96352.47
2023-02-22T18:15:42.057Z,96354.19
2023-02-22T18:17:47.380Z,96357.78
2023-02-22T18:19:51.899Z,96358.72
2023-02-22T18:22:00.290Z,96351.19
2023-02-22T18:24:04.884Z,96348.38
2023-02-22T18:26:11.645Z,96349.28
2023-02-22T18:28:16.689Z,96351.78
2023-02-22T18:30:24.424Z,96344.75
2023-02-22T18:32:32.016Z,96356.78
2023-02-22T18:34:36.657Z,96348.94
2023-02-22T18:36:41.345Z,96352.84
2023-02-22T18:38:46.204Z,96350.03
2023-02-22T18:40:51.538Z,96348.00
2023-02-22T18:42:56.033Z,96354.69
2023-02-22T18:45:03.363Z,96351.84
2023-02-22T18:47:10.649Z,96351.72
2023-02-22T18:49:17.317Z,96351.84
2023-02-22T18:51:21.958Z,96355.91
2023-02-22T18:53:26.395Z,96351.50
2023-02-22T18:55:30.935Z,96347.56
2023-02-22T18:57:36.068Z,96354.56
2023-02-22T18:59:40.900Z,96354.06
2023-02-22T19:01:49.168Z,96356.25
2023-02-22T19:03:56.872Z,96348.91
2023-02-22T19:06:03.856Z,96349.53
2023-02-22T19:08:11.432Z,96352.00
2023-02-22T19:10:16.027Z,96348.41
2023-02-22T19:12:20.841Z,96350.09
2023-02-22T19:14:26.897Z,96347.25
2023-02-22T19:16:32.096Z,96343.97
2023-02-22T19:18:36.699Z,96350.19
2023-02-22T19:20:44.234Z,96342.84
2023-02-22T19:22:49.335Z,96352.00
2023-02-22T19:24:54.331Z,96344.97
2023-02-22T19:27:00.137Z,96345.56
2023-02-22T19:29:08.625Z,96343.03
2023-02-22T19:31:14.290Z,96348.94
2023-02-22T19:33:18.872Z,96342.69
2023-02-22T19:35:28.834Z,96352.81
2023-02-22T19:37:37.176Z,96349.97
2023-02-22T19:39:42.473Z,96347.13
2023-02-22T19:41:47.421Z,96351.16
2023-02-22T19:43:53.134Z,96356.78
2023-02-22T19:45:57.727Z,96353.16
2023-02-22T19:48:02.464Z,96354.06
2023-02-22T19:50:08.212Z,96354.47
2023-02-22T19:52:12.780Z,96353.78
2023-02-22T19:54:21.596Z,96355.19
2023-02-22T19:56:27.443Z,96365.28
2023-02-22T19:58:36.774Z,96357.94
2023-02-22T20:00:41.466Z,96363.94
2023-02-22T20:02:46.141Z,96366.50
2023-02-22T20:04:51.449Z,96364.56
2023-02-22T20:06:57.724Z,96364.75
2023-02-22T20:09:02.811Z,96369.97
2023-02-22T20:11:10.634Z,96369.09
2023-02-22T20:13:17.171Z,96360.78
2023-02-22T20:15:23.982Z,96368.50
2023-02-22T20:17:28.931Z,96370.66
2023-02-22T20:19:33.456Z,96371.56
2023-02-22T20:21:38.084Z,96371.94
2023-02-22T20:23:44.491Z,96371.25
2023-02-22T20:25:54.204Z,96373.69
2023-02-22T20:28:01.494Z,96375.34
2023-02-22T20:30:06.164Z,96379.94
2023-02-22T20:32:15.073Z,96376.31
2023-02-22T20:34:19.663Z,96376.44
2023-02-22T20:36:25.011Z,96385.19
2023-02-22T20:38:30.280Z,96378.44
2023-02-22T20:40:34.872Z,96382.75
2023-02-22T20:42:40.669Z,96384.13
2023-02-22T20:44:47.851Z,96387.31
2023-02-22T20:46:52.288Z,96383.16
2023-02-22T20:48:56.989Z,96380.13
2023-02-22T20:51:07.691Z,96384.69
2023-02-22T20:53:12.209Z,96389.28
2023-02-22T20:55:16.707Z,96386.44
2023-02-22T20:57:21.507Z,96389.84
2023-02-22T20:59:28.964Z,96385.38
2023-02-22T21:01:36.335Z,96398.06
2023-02-22T21:03:42.287Z,96401.28
2023-02-22T21:05:47.228Z,96392.34
2023-02-22T21:07:51.713Z,96402.25
2023-02-22T21:09:56.189Z,96398.31
2023-02-22T21:12:00.723Z,96393.81
2023-02-22T21:14:05.645Z,96391.69
2023-02-22T21:16:10.529Z,96404.31
2023-02-22T21:18:17.709Z,96405.84
2023-02-22T21:20:22.761Z,96397.44
2023-02-22T21:22:28.776Z,96397.44
2023-02-22T21:24:34.770Z,96401.94
2023-02-22T21:26:40.505Z,96399.31
2023-02-22T21:28:51.205Z,96396.38
2023-02-22T21:30:56.245Z,96391.09
2023-02-22T21:33:02.299Z,96384.44
2023-02-22T21:35:09.886Z,96391.53
2023-02-22T21:37:18.192Z,96384.06
2023-02-22T21:39:27.811Z,96376.63
2023-02-22T21:41:34.088Z,96375.28
2023-02-22T21:43:38.621Z,96380.78
2023-02-22T21:45:43.088Z,96380.50
2023-02-22T21:47:49.015Z,96380.78
2023-02-22T21:49:53.552Z,96382.63
2023-02-22T21:52:00.637Z,96386.38
2023-02-22T21:54:06.222Z,96380.00
2023-02-22T21:56:10.901Z,96385.84
2023-02-22T21:58:15.839Z,96384.06
2023-02-22T22:00:29.330Z,96384.66
2023-02-22T22:02:33.907Z,96383.88
2023-02-22T22:04:38.599Z,96386.25
2023-02-22T22:06:43.481Z,96375.66
2023-02-22T22:08:53.739Z,96381.72
2023-02-22T22:10:58.588Z,96384.28
2023-02-22T22:13:03.189Z,96382.91
2023-02-22T22:15:08.280Z,96386.38
2023-02-22T22:17:14.480Z,96382.72
2023-02-22T22:19:19.240Z,96388.88
2023-02-22T22:21:24.924Z,96385.25
2023-02-22T22:23:30.510Z,96387.16
2023-02-22T22:25:39.759Z,96385.88
2023-02-22T22:27:44.229Z,96389.09
2023-02-22T22:29:49.188Z,96382.81
2023-02-22T22:31:54.579Z,96391.03
2023-02-22T22:33:59.926Z,96386.81
2023-02-22T22:36:04.408Z,96384.97
2023-02-22T22:38:09.583Z,96384.69
2023-02-22T22:40:15.887Z,96383.63
2023-02-22T22:42:23.876Z,96391.53
2023-02-22T22:44:32.943Z,96393.38
2023-02-22T22:46:39.829Z,96391.53
2023-02-22T22:48:47.031Z,96387.81
2023-02-22T22:51:02.628Z,96389.38
2023-02-22T22:53:07.262Z,96389.66
2023-02-22T22:55:12.360Z,96386.50
2023-02-22T22:57:17.036Z,96385.81
2023-02-22T22:59:24.147Z,96386.88
2023-02-22T23:01:33.526Z,96387.66
2023-02-22T23:03:39.007Z,96386.88
2023-02-22T23:05:44.056Z,96388.75
2023-02-22T23:07:48.527Z,96387.66
2023-02-22T23:09:52.950Z,96385.53
2023-02-22T23:12:08.727Z,96391.03
2023-02-22T23:14:15.122Z,96392.31
2023-02-22T23:16:23.184Z,96396.25
2023-02-22T23:18:27.639Z,96395.44
2023-02-22T23:20:33.189Z,96403.88
2023-02-22T23:22:37.961Z,96402.00
2023-02-22T23:24:44.641Z,96406.72
2023-02-22T23:26:51.427Z,96397.72
2023-02-22T23:28:57.086Z,96404.31
2023-02-22T23:31:03.408Z,96405.38
2023-02-22T23:33:10.862Z,96399.84
2023-02-22T23:35:15.665Z,96401.72
2023-02-22T23:37:20.882Z,96394.09
2023-02-22T23:39:25.923Z,96393.59
2023-02-22T23:41:31.475Z,96398.38
2023-02-22T23:43:35.958Z,96399.47
2023-02-22T23:45:40.942Z,96396.53
2023-02-22T23:47:50.427Z,96401.25
2023-02-22T23:49:59.118Z,96400.16
2023-02-22T23:52:03.843Z,96400.66
2023-02-22T23:54:09.090Z,96403.59
2023-02-22T23:56:14.213Z,96400.72
2023-02-22T23:58:22.830Z,96399.94
